sensor_id;sensor_type;location;lat;lon;timestamp;pressure;altitude;pressure_sealevel;temperature;humidity
8069;BME280;4077;43.702;24.896;2023-04-26T00:01:18;98458.47;;;11.13;100.00
8069;BME280;4077;43.702;24.896;2023-04-26T00:03:43;98466.06;;;11.34;100.00
8069;BME280;4077;43.702;24.896;2023-04-26T00:06:08;98465.25;;;11.24;100.00
8069;BME280;4077;43.702;24.896;2023-04-26T00:08:35;98479.84;;;11.30;100.00
8069;BME280;4077;43.702;24.896;2023-04-26T00:11:00;98479.03;;;11.27;100.00
8069;BME280;4077;43.702;24.896;2023-04-26T00:13:26;98471.28;;;11.27;100.00
8069;BME280;4077;43.702;24.896;2023-04-26T00:15:56;98468.75;;;11.19;100.00
8069;BME280;4077;43.702;24.896;2023-04-26T00:18:21;98473.00;;;11.24;100.00
8069;BME280;4077;43.702;24.896;2023-04-26T00:20:46;98460.97;;;11.23;100.00
8069;BME280;4077;43.702;24.896;2023-04-26T00:23:12;98461.94;;;11.12;100.00
8069;BME280;4077;43.702;24.896;2023-04-26T00:25:37;98440.47;;;11.01;100.00
8069;BME280;4077;43.702;24.896;2023-04-26T00:28:03;98458.50;;;11.07;100.00
8069;BME280;4077;43.702;24.896;2023-04-26T00:30:29;98454.28;;;10.95;100.00
8069;BME280;4077;43.702;24.896;2023-04-26T00:32:54;98456.06;;;10.91;100.00
8069;BME280;4077;43.702;24.896;2023-04-26T00:35:20;98450.84;;;10.96;100.00
8069;BME280;4077;43.702;24.896;2023-04-26T00:37:45;98446.53;;;11.00;100.00
8069;BME280;4077;43.702;24.896;2023-04-26T00:40:12;98448.31;;;10.84;100.00
8069;BME280;4077;43.702;24.896;2023-04-26T00:42:38;98446.63;;;10.84;100.00
8069;BME280;4077;43.702;24.896;2023-04-26T00:45:05;98451.63;;;11.04;100.00
8069;BME280;4077;43.702;24.896;2023-04-26T00:47:30;98435.38;;;10.90;100.00
8069;BME280;4077;43.702;24.896;2023-04-26T00:49:56;98412.25;;;10.79;100.00
8069;BME280;4077;43.702;24.896;2023-04-26T00:52:21;98444.84;;;10.91;100.00
8069;BME280;4077;43.702;24.896;2023-04-26T00:54:48;98445.69;;;10.94;100.00
8069;BME280;4077;43.702;24.896;2023-04-26T00:57:14;98438.00;;;10.82;100.00
8069;BME280;4077;43.702;24.896;2023-04-26T00:59:39;98445.75;;;10.87;100.00
8069;BME280;4077;43.702;24.896;2023-04-26T01:02:05;98438.97;;;10.72;100.00
8069;BME280;4077;43.702;24.896;2023-04-26T01:04:31;98439.75;;;10.80;100.00
8069;BME280;4077;43.702;24.896;2023-04-26T01:06:59;98426.06;;;10.72;100.00
8069;BME280;4077;43.702;24.896;2023-04-26T01:09:26;98436.34;;;10.75;100.00
8069;BME280;4077;43.702;24.896;2023-04-26T01:11:52;98414.94;;;10.61;100.00
8069;BME280;4077;43.702;24.896;2023-04-26T01:14:22;98420.16;;;10.50;100.00
8069;BME280;4077;43.702;24.896;2023-04-26T01:16:48;98427.81;;;10.67;100.00
8069;BME280;4077;43.702;24.896;2023-04-26T01:19:15;98434.78;;;10.48;100.00
8069;BME280;4077;43.702;24.896;2023-04-26T01:21:41;98432.22;;;10.47;100.00
8069;BME280;4077;43.702;24.896;2023-04-26T01:24:11;98412.41;;;10.49;100.00
8069;BME280;4077;43.702;24.896;2023-04-26T01:26:38;98425.28;;;10.59;100.00
8069;BME280;4077;43.702;24.896;2023-04-26T01:29:17;98415.00;;;10.49;100.00
8069;BME280;4077;43.702;24.896;2023-04-26T01:31:43;98416.78;;;10.37;100.00
8069;BME280;4077;43.702;24.896;2023-04-26T01:34:09;98418.50;;;10.38;100.00
8069;BME280;4077;43.702;24.896;2023-04-26T01:36:34;98410.75;;;10.35;100.00
8069;BME280;4077;43.702;24.896;2023-04-26T01:39:00;98403.94;;;10.25;100.00
8069;BME280;4077;43.702;24.896;2023-04-26T01:41:25;98403.91;;;10.22;100.00
8069;BME280;4077;43.702;24.896;2023-04-26T01:43:51;98410.84;;;10.23;100.00
8069;BME280;4077;43.702;24.896;2023-04-26T01:46:16;98388.47;;;10.19;100.00
8069;BME280;4077;43.702;24.896;2023-04-26T01:48:42;98391.13;;;10.02;100.00
8069;BME280;4077;43.702;24.896;2023-04-26T01:51:07;98393.72;;;10.04;100.00
8069;BME280;4077;43.702;24.896;2023-04-26T01:53:32;98403.06;;;10.32;100.00
8069;BME280;4077;43.702;24.896;2023-04-26T01:56:01;98390.09;;;10.41;100.00
8069;BME280;4077;43.702;24.896;2023-04-26T01:58:28;98385.88;;;10.22;100.00
8069;BME280;4077;43.702;24.896;2023-04-26T02:00:53;98381.63;;;10.12;100.00
8069;BME280;4077;43.702;24.896;2023-04-26T02:03:19;98373.03;;;10.16;100.00
8069;BME280;4077;43.702;24.896;2023-04-26T02:05:45;98390.13;;;10.35;100.00
8069;BME280;4077;43.702;24.896;2023-04-26T02:08:11;98394.44;;;10.36;100.00
8069;BME280;4077;43.702;24.896;2023-04-26T02:10:36;98378.97;;;10.36;100.00
8069;BME280;4077;43.702;24.896;2023-04-26T02:13:02;98390.13;;;10.35;100.00
8069;BME280;4077;43.702;24.896;2023-04-26T02:15:27;98391.88;;;10.33;100.00
8069;BME280;4077;43.702;24.896;2023-04-26T02:17:53;98393.59;;;10.22;100.00
8069;BME280;4077;43.702;24.896;2023-04-26T02:20:21;98391.88;;;10.21;100.00
8069;BME280;4077;43.702;24.896;2023-04-26T02:22:46;98356.00;;;9.81;100.00
8069;BME280;4077;43.702;24.896;2023-04-26T02:25:11;98366.25;;;9.87;100.00
8069;BME280;4077;43.702;24.896;2023-04-26T02:27:37;98380.00;;;9.86;100.00
8069;BME280;4077;43.702;24.896;2023-04-26T02:30:03;98378.22;;;10.07;100.00
8069;BME280;4077;43.702;24.896;2023-04-26T02:32:29;98374.03;;;9.83;100.00
8069;BME280;4077;43.702;24.896;2023-04-26T02:34:54;98383.47;;;9.82;100.00
8069;BME280;4077;43.702;24.896;2023-04-26T02:37:20;98354.34;;;9.64;100.00
8069;BME280;4077;43.702;24.896;2023-04-26T02:39:49;98381.78;;;9.75;100.00
8069;BME280;4077;43.702;24.896;2023-04-26T02:42:15;98393.78;;;9.89;100.00
8069;BME280;4077;43.702;24.896;2023-04-26T02:44:41;98367.22;;;9.59;100.00
8069;BME280;4077;43.702;24.896;2023-04-26T02:47:07;98383.53;;;9.69;100.00
8069;BME280;4077;43.702;24.896;2023-04-26T02:49:33;98362.06;;;9.57;100.00
8069;BME280;4077;43.702;24.896;2023-04-26T02:51:58;98374.09;;;9.62;100.00
8069;BME280;4077;43.702;24.896;2023-04-26T02:54:24;98377.50;;;9.70;100.00
8069;BME280;4077;43.702;24.896;2023-04-26T02:56:50;98385.22;;;9.71;100.00
8069;BME280;4077;43.702;24.896;2023-04-26T02:59:15;98385.19;;;9.90;100.00
8069;BME280;4077;43.702;24.896;2023-04-26T03:01:40;98368.06;;;9.59;100.00
8069;BME280;4077;43.702;24.896;2023-04-26T03:04:06;98387.78;;;9.73;100.00
8069;BME280;4077;43.702;24.896;2023-04-26T03:06:32;98394.66;;;9.75;100.00
8069;BME280;4077;43.702;24.896;2023-04-26T03:08:57;98396.41;;;9.66;100.00
8069;BME280;4077;43.702;24.896;2023-04-26T03:11:23;98400.69;;;9.71;100.00
8069;BME280;4077;43.702;24.896;2023-04-26T03:13:48;98395.53;;;9.71;100.00
8069;BME280;4077;43.702;24.896;2023-04-26T03:16:13;98406.66;;;9.89;100.00
8069;BME280;4077;43.702;24.896;2023-04-26T03:18:40;98409.25;;;9.89;100.00
8069;BME280;4077;43.702;24.896;2023-04-26T03:21:06;98413.50;;;9.86;100.00
8069;BME280;4077;43.702;24.896;2023-04-26T03:23:31;98417.84;;;9.78;100.00
8069;BME280;4077;43.702;24.896;2023-04-26T03:25:56;98367.28;;;9.35;100.00
8069;BME280;4077;43.702;24.896;2023-04-26T03:28:22;98434.19;;;9.71;100.00
8069;BME280;4077;43.702;24.896;2023-04-26T03:30:48;98429.91;;;9.75;100.00
8069;BME280;4077;43.702;24.896;2023-04-26T03:33:16;98429.00;;;9.82;100.00
8069;BME280;4077;43.702;24.896;2023-04-26T03:35:42;98435.00;;;9.89;100.00
8069;BME280;4077;43.702;24.896;2023-04-26T03:38:07;98431.56;;;9.90;100.00
8069;BME280;4077;43.702;24.896;2023-04-26T03:40:33;98439.28;;;9.96;100.00
8069;BME280;4077;43.702;24.896;2023-04-26T03:42:58;98391.25;;;9.64;100.00
8069;BME280;4077;43.702;24.896;2023-04-26T03:45:24;98453.00;;;10.02;100.00
8069;BME280;4077;43.702;24.896;2023-04-26T03:47:51;98453.88;;;9.97;100.00
8069;BME280;4077;43.702;24.896;2023-04-26T03:50:16;98459.88;;;10.05;100.00
8069;BME280;4077;43.702;24.896;2023-04-26T03:52:42;98448.69;;;10.06;100.00
8069;BME280;4077;43.702;24.896;2023-04-26T03:55:07;98453.81;;;10.12;100.00
8069;BME280;4077;43.702;24.896;2023-04-26T03:57:34;98440.06;;;10.13;100.00
8069;BME280;4077;43.702;24.896;2023-04-26T04:00:00;98459.81;;;10.15;100.00
8069;BME280;4077;43.702;24.896;2023-04-26T04:02:26;98462.41;;;10.19;100.00
8069;BME280;4077;43.702;24.896;2023-04-26T04:04:51;98465.81;;;10.22;100.00
8069;BME280;4077;43.702;24.896;2023-04-26T04:07:16;98453.81;;;10.15;100.00
8069;BME280;4077;43.702;24.896;2023-04-26T04:09:43;98465.84;;;10.25;100.00
8069;BME280;4077;43.702;24.896;2023-04-26T04:12:08;98459.81;;;10.14;100.00
8069;BME280;4077;43.702;24.896;2023-04-26T04:14:33;98393.78;;;9.79;100.00
8069;BME280;4077;43.702;24.896;2023-04-26T04:16:59;98469.25;;;10.21;100.00
8069;BME280;4077;43.702;24.896;2023-04-26T04:19:25;98465.84;;;10.13;100.00
8069;BME280;4077;43.702;24.896;2023-04-26T04:21:50;98452.09;;;10.14;100.00
8069;BME280;4077;43.702;24.896;2023-04-26T04:24:16;98458.06;;;10.22;100.00
8069;BME280;4077;43.702;24.896;2023-04-26T04:26:41;98470.16;;;10.25;100.00
8069;BME280;4077;43.702;24.896;2023-04-26T04:29:07;98433.22;;;10.00;100.00
8069;BME280;4077;43.702;24.896;2023-04-26T04:31:35;98452.97;;;10.16;100.00
8069;BME280;4077;43.702;24.896;2023-04-26T04:34:01;98448.69;;;10.23;100.00
8069;BME280;4077;43.702;24.896;2023-04-26T04:36:26;98472.66;;;10.41;100.00
8069;BME280;4077;43.702;24.896;2023-04-26T04:38:52;98472.59;;;10.54;100.00
8069;BME280;4077;43.702;24.896;2023-04-26T04:41:18;98481.97;;;10.68;100.00
8069;BME280;4077;43.702;24.896;2023-04-26T04:43:44;98470.81;;;10.71;100.00
8069;BME280;4077;43.702;24.896;2023-04-26T04:46:10;98464.75;;;10.74;100.00
8069;BME280;4077;43.702;24.896;2023-04-26T04:48:36;98485.38;;;10.78;100.00
8069;BME280;4077;43.702;24.896;2023-04-26T04:51:03;98487.78;;;11.06;100.00
8069;BME280;4077;43.702;24.896;2023-04-26T04:53:28;98474.13;;;10.88;100.00
8069;BME280;4077;43.702;24.896;2023-04-26T04:55:54;98490.38;;;11.03;100.00
8069;BME280;4077;43.702;24.896;2023-04-26T04:58:21;98491.16;;;11.15;100.00
8069;BME280;4077;43.702;24.896;2023-04-26T05:00:47;98475.66;;;11.17;100.00
8069;BME280;4077;43.702;24.896;2023-04-26T05:03:15;98463.41;;;11.40;100.00
8069;BME280;4077;43.702;24.896;2023-04-26T05:05:40;98486.44;;;11.66;100.00
8069;BME280;4077;43.702;24.896;2023-04-26T05:08:06;98481.16;;;11.82;100.00
8069;BME280;4077;43.702;24.896;2023-04-26T05:10:34;98488.78;;;11.95;100.00
8069;BME280;4077;43.702;24.896;2023-04-26T05:13:00;98477.50;;;12.02;100.00
8069;BME280;4077;43.702;24.896;2023-04-26T05:15:25;98491.94;;;12.22;100.00
8069;BME280;4077;43.702;24.896;2023-04-26T05:17:51;98460.03;;;12.20;100.00
8069;BME280;4077;43.702;24.896;2023-04-26T05:20:16;98479.91;;;12.18;100.00
8069;BME280;4077;43.702;24.896;2023-04-26T05:22:42;98465.19;;;12.21;100.00
8069;BME280;4077;43.702;24.896;2023-04-26T05:25:08;98455.88;;;12.07;100.00
8069;BME280;4077;43.702;24.896;2023-04-26T05:27:35;98471.31;;;12.16;100.00
8069;BME280;4077;43.702;24.896;2023-04-26T05:30:03;98469.38;;;12.33;100.00
8069;BME280;4077;43.702;24.896;2023-04-26T05:32:29;98475.41;;;12.33;100.00
8069;BME280;4077;43.702;24.896;2023-04-26T05:34:54;98459.00;;;12.36;100.00
8069;BME280;4077;43.702;24.896;2023-04-26T05:37:20;98475.22;;;12.49;100.00
8069;BME280;4077;43.702;24.896;2023-04-26T05:39:45;98477.69;;;12.59;100.00
8069;BME280;4077;43.702;24.896;2023-04-26T05:42:11;98464.34;;;12.87;100.00
8069;BME280;4077;43.702;24.896;2023-04-26T05:44:36;98477.28;;;12.88;100.00
8069;BME280;4077;43.702;24.896;2023-04-26T05:47:02;98490.22;;;12.88;100.00
8069;BME280;4077;43.702;24.896;2023-04-26T05:49:27;98489.06;;;13.09;100.00
8069;BME280;4077;43.702;24.896;2023-04-26T05:51:52;98496.72;;;13.20;100.00
8069;BME280;4077;43.702;24.896;2023-04-26T05:54:18;98498.53;;;13.12;100.00
8069;BME280;4077;43.702;24.896;2023-04-26T05:56:43;98488.19;;;13.12;100.00
8069;BME280;4077;43.702;24.896;2023-04-26T05:59:09;98490.59;;;13.26;100.00
8069;BME280;4077;43.702;24.896;2023-04-26T06:01:34;98498.09;;;13.43;100.00
8069;BME280;4077;43.702;24.896;2023-04-26T06:04:00;98498.84;;;13.49;100.00
8069;BME280;4077;43.702;24.896;2023-04-26T06:06:25;98493.16;;;13.80;100.00
8069;BME280;4077;43.702;24.896;2023-04-26T06:08:52;98496.34;;;13.94;100.00
8069;BME280;4077;43.702;24.896;2023-04-26T06:11:18;98498.16;;;13.89;100.00
8069;BME280;4077;43.702;24.896;2023-04-26T06:13:43;98506.53;;;14.05;100.00
8069;BME280;4077;43.702;24.896;2023-04-26T06:16:09;98493.50;;;14.08;100.00
8069;BME280;4077;43.702;24.896;2023-04-26T06:18:34;98506.03;;;14.31;100.00
8069;BME280;4077;43.702;24.896;2023-04-26T06:21:00;98500.47;;;14.50;100.00
8069;BME280;4077;43.702;24.896;2023-04-26T06:23:25;98506.84;;;14.77;96.75
8069;BME280;4077;43.702;24.896;2023-04-26T06:25:51;98500.00;;;14.73;94.92
8069;BME280;4077;43.702;24.896;2023-04-26T06:28:16;98506.44;;;14.56;94.18
8069;BME280;4077;43.702;24.896;2023-04-26T06:30:42;98495.13;;;14.58;90.27
8069;BME280;4077;43.702;24.896;2023-04-26T06:33:07;98491.13;;;14.84;89.62
8069;BME280;4077;43.702;24.896;2023-04-26T06:35:41;98509.03;;;14.96;90.33
8069;BME280;4077;43.702;24.896;2023-04-26T06:38:06;98511.44;;;15.05;90.67
8069;BME280;4077;43.702;24.896;2023-04-26T06:40:32;98509.91;;;14.95;87.16
8069;BME280;4077;43.702;24.896;2023-04-26T06:42:58;98520.13;;;15.04;84.83
8069;BME280;4077;43.702;24.896;2023-04-26T06:45:23;98517.09;;;15.24;85.35
8069;BME280;4077;43.702;24.896;2023-04-26T06:47:52;98524.75;;;15.28;84.52
8069;BME280;4077;43.702;24.896;2023-04-26T06:50:17;98508.78;;;15.44;83.40
8069;BME280;4077;43.702;24.896;2023-04-26T06:52:43;98521.59;;;15.53;83.77
8069;BME280;4077;43.702;24.896;2023-04-26T06:55:09;98530.09;;;15.59;85.44
8069;BME280;4077;43.702;24.896;2023-04-26T06:57:34;98529.75;;;16.09;85.81
8069;BME280;4077;43.702;24.896;2023-04-26T07:00:00;98530.81;;;16.34;81.67
8069;BME280;4077;43.702;24.896;2023-04-26T07:02:25;98521.94;;;16.09;81.06
8069;BME280;4077;43.702;24.896;2023-04-26T07:04:51;98533.84;;;16.18;81.79
8069;BME280;4077;43.702;24.896;2023-04-26T07:07:16;98531.50;;;16.72;79.94
8069;BME280;4077;43.702;24.896;2023-04-26T07:09:42;98547.25;;;17.55;76.14
8069;BME280;4077;43.702;24.896;2023-04-26T07:12:11;98538.88;;;17.17;76.16
8069;BME280;4077;43.702;24.896;2023-04-26T07:14:37;98553.13;;;17.33;74.66
8069;BME280;4077;43.702;24.896;2023-04-26T07:17:05;98547.31;;;17.25;72.28
8069;BME280;4077;43.702;24.896;2023-04-26T07:19:31;98552.72;;;17.19;71.00
8069;BME280;4077;43.702;24.896;2023-04-26T07:21:56;98555.88;;;17.01;72.55
8069;BME280;4077;43.702;24.896;2023-04-26T07:24:21;98558.72;;;17.49;72.17
8069;BME280;4077;43.702;24.896;2023-04-26T07:26:47;98548.16;;;17.54;70.60
8069;BME280;4077;43.702;24.896;2023-04-26T07:29:13;98551.31;;;17.37;72.00
8069;BME280;4077;43.702;24.896;2023-04-26T07:31:38;98553.44;;;16.94;71.72
8069;BME280;4077;43.702;24.896;2023-04-26T07:34:04;98544.53;;;16.39;73.13
8069;BME280;4077;43.702;24.896;2023-04-26T07:36:29;98547.34;;;16.32;73.12
8069;BME280;4077;43.702;24.896;2023-04-26T07:38:55;98520.78;;;16.19;76.79
8069;BME280;4077;43.702;24.896;2023-04-26T07:41:21;98540.88;;;16.47;75.87
8069;BME280;4077;43.702;24.896;2023-04-26T07:43:46;98555.25;;;16.92;74.58
8069;BME280;4077;43.702;24.896;2023-04-26T07:46:12;98550.47;;;16.77;73.89
8069;BME280;4077;43.702;24.896;2023-04-26T07:48:38;98556.50;;;17.09;72.48
8069;BME280;4077;43.702;24.896;2023-04-26T07:51:10;98564.00;;;17.47;73.82
8069;BME280;4077;43.702;24.896;2023-04-26T07:53:37;98570.47;;;17.90;68.81
8069;BME280;4077;43.702;24.896;2023-04-26T07:56:03;98567.31;;;17.53;72.30
8069;BME280;4077;43.702;24.896;2023-04-26T07:58:30;98562.66;;;17.34;69.68
8069;BME280;4077;43.702;24.896;2023-04-26T08:00:57;98563.88;;;17.24;71.89
8069;BME280;4077;43.702;24.896;2023-04-26T08:03:23;98565.50;;;16.99;72.48
8069;BME280;4077;43.702;24.896;2023-04-26T08:05:49;98557.84;;;16.92;73.40
8069;BME280;4077;43.702;24.896;2023-04-26T08:08:14;98559.56;;;17.23;71.13
8069;BME280;4077;43.702;24.896;2023-04-26T08:10:40;98547.75;;;17.39;72.19
8069;BME280;4077;43.702;24.896;2023-04-26T08:13:06;98547.25;;;17.55;71.50
8069;BME280;4077;43.702;24.896;2023-04-26T08:15:31;98558.69;;;17.50;72.50
8069;BME280;4077;43.702;24.896;2023-04-26T08:17:57;98557.53;;;17.03;71.70
8069;BME280;4077;43.702;24.896;2023-04-26T08:20:22;98540.84;;;16.79;71.73
8069;BME280;4077;43.702;24.896;2023-04-26T08:22:48;98548.16;;;16.98;73.45
8069;BME280;4077;43.702;24.896;2023-04-26T08:25:14;98549.53;;;17.37;72.23
8069;BME280;4077;43.702;24.896;2023-04-26T08:27:39;98536.59;;;17.34;69.19
8069;BME280;4077;43.702;24.896;2023-04-26T08:30:05;98546.16;;;17.62;69.75
8069;BME280;4077;43.702;24.896;2023-04-26T08:32:31;98553.00;;;17.66;69.21
8069;BME280;4077;43.702;24.896;2023-04-26T08:34:58;98540.00;;;17.64;69.61
8069;BME280;4077;43.702;24.896;2023-04-26T08:37:24;98546.63;;;17.74;70.26
8069;BME280;4077;43.702;24.896;2023-04-26T08:39:49;98549.66;;;17.89;69.46
8069;BME280;4077;43.702;24.896;2023-04-26T08:42:16;98552.63;;;17.78;66.59
8069;BME280;4077;43.702;24.896;2023-04-26T08:44:43;98541.75;;;17.90;67.68
8069;BME280;4077;43.702;24.896;2023-04-26T08:47:15;98543.25;;;17.97;66.95
8069;BME280;4077;43.702;24.896;2023-04-26T08:49:46;98548.47;;;17.97;67.93
8069;BME280;4077;43.702;24.896;2023-04-26T08:52:17;98544.47;;;18.14;66.61
8069;BME280;4077;43.702;24.896;2023-04-26T08:54:48;98547.91;;;18.14;66.48
8069;BME280;4077;43.702;24.896;2023-04-26T08:57:15;98544.41;;;18.15;65.93
8069;BME280;4077;43.702;24.896;2023-04-26T08:59:41;98558.59;;;18.33;64.68
8069;BME280;4077;43.702;24.896;2023-04-26T09:02:09;98546.00;;;18.19;64.87
8069;BME280;4077;43.702;24.896;2023-04-26T09:04:37;98551.69;;;18.30;63.44
8069;BME280;4077;43.702;24.896;2023-04-26T09:07:06;98553.47;;;18.30;62.56
8069;BME280;4077;43.702;24.896;2023-04-26T09:09:35;98570.56;;;18.64;60.24
8069;BME280;4077;43.702;24.896;2023-04-26T09:12:07;98564.47;;;18.63;61.29
8069;BME280;4077;43.702;24.896;2023-04-26T09:14:33;98560.66;;;18.23;61.26
8069;BME280;4077;43.702;24.896;2023-04-26T09:16:58;98565.34;;;18.39;60.83
8069;BME280;4077;43.702;24.896;2023-04-26T09:22:00;98551.00;;;18.00;60.13
8069;BME280;4077;43.702;24.896;2023-04-26T09:24:25;98566.94;;;18.18;59.25
8069;BME280;4077;43.702;24.896;2023-04-26T09:27:03;98573.19;;;18.39;59.28
8069;BME280;4077;43.702;24.896;2023-04-26T09:29:28;98565.03;;;18.73;59.36
8069;BME280;4077;43.702;24.896;2023-04-26T09:31:53;98583.94;;;19.50;59.42
8069;BME280;4077;43.702;24.896;2023-04-26T09:34:19;98577.78;;;19.73;57.11
8069;BME280;4077;43.702;24.896;2023-04-26T09:36:52;98569.50;;;20.26;56.55
8069;BME280;4077;43.702;24.896;2023-04-26T09:39:36;98580.00;;;20.46;55.33
8069;BME280;4077;43.702;24.896;2023-04-26T09:42:08;98572.34;;;19.99;55.27
8069;BME280;4077;43.702;24.896;2023-04-26T09:44:34;98564.47;;;19.79;55.09
8069;BME280;4077;43.702;24.896;2023-04-26T09:47:07;98569.16;;;19.47;55.82
8069;BME280;4077;43.702;24.896;2023-04-26T09:49:48;98571.00;;;19.45;56.84
8069;BME280;4077;43.702;24.896;2023-04-26T09:52:15;98551.34;;;18.90;59.36
8069;BME280;4077;43.702;24.896;2023-04-26T09:54:46;98566.28;;;18.86;58.62
8069;BME280;4077;43.702;24.896;2023-04-26T09:57:14;98561.50;;;18.97;58.43
8069;BME280;4077;43.702;24.896;2023-04-26T09:59:44;98564.59;;;19.08;58.55
8069;BME280;4077;43.702;24.896;2023-04-26T10:02:13;98555.16;;;18.56;58.18
8069;BME280;4077;43.702;24.896;2023-04-26T10:04:41;98538.63;;;18.55;60.46
8069;BME280;4077;43.702;24.896;2023-04-26T10:07:08;98561.81;;;18.90;58.30
8069;BME280;4077;43.702;24.896;2023-04-26T10:09:34;98543.38;;;19.16;58.75
8069;BME280;4077;43.702;24.896;2023-04-26T10:12:00;98563.44;;;18.92;60.20
8069;BME280;4077;43.702;24.896;2023-04-26T10:14:26;98536.50;;;18.42;57.78
8069;BME280;4077;43.702;24.896;2023-04-26T10:16:53;98534.19;;;18.57;59.15
8069;BME280;4077;43.702;24.896;2023-04-26T10:19:20;98537.75;;;18.07;60.65
8069;BME280;4077;43.702;24.896;2023-04-26T10:21:47;98549.97;;;17.80;62.70
8069;BME280;4077;43.702;24.896;2023-04-26T10:24:13;98536.81;;;17.55;60.69
8069;BME280;4077;43.702;24.896;2023-04-26T10:26:45;98539.59;;;17.48;61.59
8069;BME280;4077;43.702;24.896;2023-04-26T10:29:14;98536.19;;;17.46;62.28
8069;BME280;4077;43.702;24.896;2023-04-26T10:34:32;98539.13;;;17.36;63.38
8069;BME280;4077;43.702;24.896;2023-04-26T10:39:40;98542.06;;;17.81;62.05
8069;BME280;4077;43.702;24.896;2023-04-26T10:42:26;98537.63;;;18.10;61.78
8069;BME280;4077;43.702;24.896;2023-04-26T10:44:56;98558.09;;;18.22;60.57
8069;BME280;4077;43.702;24.896;2023-04-26T10:47:33;98556.41;;;18.21;60.75
8069;BME280;4077;43.702;24.896;2023-04-26T10:50:08;98557.97;;;18.25;60.13
8069;BME280;4077;43.702;24.896;2023-04-26T10:52:36;98544.47;;;18.14;61.84
8069;BME280;4077;43.702;24.896;2023-04-26T10:55:02;98555.09;;;18.57;60.29
8069;BME280;4077;43.702;24.896;2023-04-26T10:57:49;98539.31;;;18.61;59.57
8069;BME280;4077;43.702;24.896;2023-04-26T11:00:25;98550.09;;;18.51;61.27
8069;BME280;4077;43.702;24.896;2023-04-26T11:05:51;98546.50;;;18.79;59.87
8069;BME280;4077;43.702;24.896;2023-04-26T11:08:24;98551.28;;;18.91;59.80
8069;BME280;4077;43.702;24.896;2023-04-26T11:10:56;98543.66;;;18.85;60.73
8069;BME280;4077;43.702;24.896;2023-04-26T11:13:22;98547.97;;;19.09;60.19
8069;BME280;4077;43.702;24.896;2023-04-26T11:15:52;98543.06;;;19.00;59.15
8069;BME280;4077;43.702;24.896;2023-04-26T11:18:19;98539.84;;;19.17;60.22
8069;BME280;4077;43.702;24.896;2023-04-26T11:20:45;98534.34;;;19.01;58.84
8069;BME280;4077;43.702;24.896;2023-04-26T11:23:11;98544.34;;;18.90;57.71
8069;BME280;4077;43.702;24.896;2023-04-26T11:25:38;98531.03;;;18.73;59.62
8069;BME280;4077;43.702;24.896;2023-04-26T11:28:04;98532.34;;;18.84;59.00
8069;BME280;4077;43.702;24.896;2023-04-26T11:30:31;98524.66;;;19.03;60.87
8069;BME280;4077;43.702;24.896;2023-04-26T11:33:01;98531.03;;;18.96;59.94
8069;BME280;4077;43.702;24.896;2023-04-26T11:35:37;98531.59;;;19.04;56.98
8069;BME280;4077;43.702;24.896;2023-04-26T11:38:03;98528.16;;;19.26;58.94
8069;BME280;4077;43.702;24.896;2023-04-26T11:40:32;98498.44;;;19.05;58.86
8069;BME280;4077;43.702;24.896;2023-04-26T11:43:03;98530.38;;;19.13;58.78
8069;BME280;4077;43.702;24.896;2023-04-26T11:45:35;98524.13;;;19.17;58.18
8069;BME280;4077;43.702;24.896;2023-04-26T11:48:02;98529.28;;;19.19;58.56
8069;BME280;4077;43.702;24.896;2023-04-26T11:50:30;98516.59;;;18.86;58.31
8069;BME280;4077;43.702;24.896;2023-04-26T11:52:56;98525.44;;;19.05;60.88
8069;BME280;4077;43.702;24.896;2023-04-26T11:55:27;98513.22;;;18.59;58.31
8069;BME280;4077;43.702;24.896;2023-04-26T11:57:53;98520.19;;;18.35;58.92
8069;BME280;4077;43.702;24.896;2023-04-26T12:00:20;98528.03;;;18.35;59.98
8069;BME280;4077;43.702;24.896;2023-04-26T12:02:46;98539.47;;;18.31;59.88
8069;BME280;4077;43.702;24.896;2023-04-26T12:05:22;98514.47;;;18.24;60.25
8069;BME280;4077;43.702;24.896;2023-04-26T12:07:55;98527.53;;;18.24;59.19
8069;BME280;4077;43.702;24.896;2023-04-26T12:10:33;98526.69;;;18.48;59.64
8069;BME280;4077;43.702;24.896;2023-04-26T12:12:59;98516.81;;;18.56;60.58
8069;BME280;4077;43.702;24.896;2023-04-26T12:15:29;98520.69;;;18.93;60.62
8069;BME280;4077;43.702;24.896;2023-04-26T12:18:07;98532.03;;;19.16;58.13
8069;BME280;4077;43.702;24.896;2023-04-26T12:20:34;98535.22;;;19.24;58.02
8069;BME280;4077;43.702;24.896;2023-04-26T12:23:07;98535.94;;;19.27;57.73
8069;BME280;4077;43.702;24.896;2023-04-26T12:25:34;98529.75;;;19.30;57.65
8069;BME280;4077;43.702;24.896;2023-04-26T12:28:02;98533.38;;;19.26;56.69
8069;BME280;4077;43.702;24.896;2023-04-26T12:30:28;98535.00;;;19.06;56.03
8069;BME280;4077;43.702;24.896;2023-04-26T12:32:54;98521.69;;;19.12;56.24
8069;BME280;4077;43.702;24.896;2023-04-26T12:35:21;98518.91;;;19.17;56.13
8069;BME280;4077;43.702;24.896;2023-04-26T12:37:47;98526.59;;;19.22;56.67
8069;BME280;4077;43.702;24.896;2023-04-26T12:40:13;98533.00;;;19.35;56.45
8069;BME280;4077;43.702;24.896;2023-04-26T12:42:40;98528.38;;;19.41;55.82
8069;BME280;4077;43.702;24.896;2023-04-26T12:45:06;98533.13;;;19.54;55.54
8069;BME280;4077;43.702;24.896;2023-04-26T12:47:32;98533.91;;;19.57;55.50
8069;BME280;4077;43.702;24.896;2023-04-26T12:49:57;98528.44;;;19.63;54.85
8069;BME280;4077;43.702;24.896;2023-04-26T12:52:25;98525.59;;;19.46;55.28
8069;BME280;4077;43.702;24.896;2023-04-26T12:54:51;98538.22;;;19.58;56.85
8069;BME280;4077;43.702;24.896;2023-04-26T12:57:18;98521.38;;;19.42;55.04
8069;BME280;4077;43.702;24.896;2023-04-26T12:59:43;98525.22;;;19.33;55.11
8069;BME280;4077;43.702;24.896;2023-04-26T13:02:08;98526.69;;;19.19;56.01
8069;BME280;4077;43.702;24.896;2023-04-26T13:04:34;98523.75;;;19.04;55.35
8069;BME280;4077;43.702;24.896;2023-04-26T13:06:59;98516.91;;;19.00;55.63
8069;BME280;4077;43.702;24.896;2023-04-26T13:09:25;98522.97;;;19.02;55.57
8069;BME280;4077;43.702;24.896;2023-04-26T13:11:51;98528.44;;;18.96;55.60
8069;BME280;4077;43.702;24.896;2023-04-26T13:14:16;98527.03;;;18.88;55.18
8069;BME280;4077;43.702;24.896;2023-04-26T13:16:42;98535.25;;;18.77;55.45